»·PEaware :: N285SR 8W5-KYKM

N285SR :: 8W5-KYKM

FLIGHT INFORMATION

Flight Status: Arrived
Operator: Privately registered:
United States
More flights under this callsign
Pilot: Scott R. (20908)
Aircraft: SOCATA TBM-900
(TBM9)
More flights by this aircraft type
Origin: 8W5 Apex Airpark
United States
Destination: KYKM Yakima Air Term/Mcallister
United States
More flights between these airports :: More routes between these airports
Route:
File this flight plan on PilotEdge
Remarks:
Altitude:
(Current/Filed)
13,500ft
Speed:
(Current/Filed)
260kts
Departed: 08-Nov-20 11:12 AM
Arrived: 08-Nov-20 11:47 AM
Distance/Time
Traveled:
111nm/0:35
Distance/Time
To Go:
Arrived

Flight Plot

Page will automatically refresh every two minutes.

Flight plan parsing failed; only flown route is shown


Map Options




Map Legend


Flown Route
Filed Route
Departure Airport
Arrival Airport
Navaid (VOR, NDB)
Fix

Horizontal Profiles

Position Reports

Time Latitude Longitude Heading Altitude Ground
Speed
08-Nov-20 10:45 47.658402 -122.732405 300 527ft 0kts
08-Nov-20 10:46 47.658402 -122.732405 300 527ft 0kts
08-Nov-20 10:47 47.658402 -122.732405 300 527ft 0kts
08-Nov-20 10:48 47.658402 -122.732405 300 527ft 0kts
08-Nov-20 10:49 47.658402 -122.732405 300 527ft 0kts
08-Nov-20 10:50 47.658402 -122.732405 300 527ft 0kts
08-Nov-20 10:51 47.658402 -122.732405 300 527ft 0kts
08-Nov-20 10:52 47.658402 -122.732405 300 527ft 0kts
08-Nov-20 10:53 47.658402 -122.732405 300 527ft 0kts
08-Nov-20 10:54 47.658402 -122.732405 300 527ft 0kts
08-Nov-20 11:01 47.658401 -122.732407 300 527ft 0kts
08-Nov-20 11:02 47.658401 -122.732407 300 527ft 0kts
08-Nov-20 11:03 47.658401 -122.732407 300 527ft 0kts
08-Nov-20 11:04 47.658402 -122.732407 299 527ft 0kts
08-Nov-20 11:05 47.658402 -122.732407 299 527ft 0kts
08-Nov-20 11:06 47.658402 -122.732407 299 527ft 0kts
08-Nov-20 11:07 47.658402 -122.732407 299 527ft 0kts
08-Nov-20 11:08 47.658372 -122.732600 182 527ft 2kts
08-Nov-20 11:09 47.657830 -122.732662 188 527ft 9kts
08-Nov-20 11:10 47.654843 -122.733236 189 527ft 11kts
08-Nov-20 11:11 47.653195 -122.733815 4 527ft 0kts
08-Nov-20 11:12 47.671889 -122.727553 15 1613ft 109kts
08-Nov-20 11:13 47.703865 -122.744042 287 3437ft 160kts
08-Nov-20 11:13 47.712229 -122.797244 266 5175ft 164kts
08-Nov-20 11:15 47.665808 -122.821653 180 7627ft 166kts
08-Nov-20 11:15 47.627145 -122.826529 180 9653ft 170kts
08-Nov-20 11:17 47.575065 -122.810830 138 12128ft 171kts
08-Nov-20 11:17 47.556365 -122.761677 111 13509ft 181kts
08-Nov-20 11:18 47.524649 -122.684300 116 13499ft 241kts
08-Nov-20 11:19 47.486807 -122.596209 117 13496ft 254kts
08-Nov-20 11:20 47.447875 -122.506132 117 13493ft 257kts
08-Nov-20 11:21 47.408743 -122.415830 117 13490ft 256kts
08-Nov-20 11:22 47.369760 -122.326148 118 13491ft 256kts
08-Nov-20 11:23 47.330656 -122.236453 118 13492ft 257kts
08-Nov-20 11:24 47.291464 -122.146912 118 13490ft 257kts
08-Nov-20 11:25 47.252128 -122.057301 118 13437ft 258kts
08-Nov-20 11:26 47.212753 -121.967909 118 13382ft 258kts
08-Nov-20 11:27 47.173625 -121.879350 118 13346ft 257kts
08-Nov-20 11:28 47.134406 -121.790910 118 13345ft 256kts
08-Nov-20 11:29 47.095114 -121.702511 118 13345ft 256kts
08-Nov-20 11:30 47.055594 -121.613943 118 13347ft 256kts
08-Nov-20 11:31 47.015677 -121.524765 118 13346ft 256kts
08-Nov-20 11:32 46.975595 -121.435526 118 12885ft 256kts
08-Nov-20 11:33 46.935626 -121.346757 118 11736ft 255kts
08-Nov-20 11:34 46.895279 -121.257420 118 10566ft 257kts
08-Nov-20 11:35 46.854753 -121.168063 119 9393ft 253kts
08-Nov-20 11:36 46.815664 -121.082157 119 8271ft 243kts
08-Nov-20 11:37 46.777061 -120.997553 119 7181ft 244kts
08-Nov-20 11:38 46.738398 -120.913060 119 6058ft 242kts
08-Nov-20 11:39 46.699867 -120.829045 119 4958ft 238kts
08-Nov-20 11:40 46.665022 -120.753389 119 3950ft 203kts
08-Nov-20 11:41 46.634492 -120.687404 117 3066ft 174kts
08-Nov-20 11:42 46.605091 -120.623718 116 2488ft 173kts
08-Nov-20 11:43 46.590468 -120.571000 102 2256ft 125kts
08-Nov-20 11:44 46.575653 -120.525232 108 1553ft 120kts
08-Nov-20 11:45 46.563647 -120.527447 314 1230ft 96kts
08-Nov-20 11:46 46.569032 -120.542121 24 1102ft 0kts
08-Nov-20 11:47 46.570279 -120.542581 357 1102ft 11kts
08-Nov-20 11:48 46.570404 -120.542781 267 1102ft 0kts

Navigation Log

Ident Type
Flight plan parsing failed, navigation log unavailable